РПИ Ташкент

Руководство

Evgeny Vygornitsky*

Куратор
Инструкторы РПИ
Evgeny Vygornitsky (Supervisor)
Входит в состав
Центральная Азия

Диспетчеры РПИ

Диспетчер Рейтинг Допуски *
Anatoly Bajenov Senior Student UTTR_CTR  *
Evgeniy Dedyaev Senior Student UTTR_CTR  *
Khurshidjon Ismoilov Senior Student UTTR_CTR  *
Vitaliy Alekseyev Controller UTTR_CTR
Arman Maxatov Student 2 UTTT_TWR
Nikita Zikeev Senior Student UTTT_APP
Timofey Abramchuck Senior Student UTTT_GND

Аэропорты РПИ

ICAO Город Название Погода
UTTT Ташкент Ташкент UTTT 240800Z 23008KT 160V310 CAVOK 28/11 Q1012 R26L/CLRD70 NOSIG
UTNU Ургенч Ургенч UTNU 240800Z 28012KT CAVOK 27/06 Q1014 R31/CLRD70 NOSIG
UTFA Андижан Андижан
UTFN Наманган Наманган UTFN 240800Z 14002KT 9999 SCT050CB 28/11 Q1012 R28/CLRD70 NOSIG
UTNN Нукус Нукус UTNN 240800Z 28012KT CAVOK 28/05 Q1013 R33/CLRD60 NOSIG
UTFF Фергана Фергана UTFF 240800Z 32006KT 200V350 9999 NSC 25/09 Q1013 R18/CLRD70